createdAt,value
2017-10-27T00:00:12.864Z,14.37
2017-10-27T00:02:39.806Z,16.50
2017-10-27T00:05:08.189Z,16.20
2017-10-27T00:07:36.543Z,15.67
2017-10-27T00:10:04.637Z,17.10
2017-10-27T00:12:32.502Z,18.63
2017-10-27T00:15:00.063Z,16.80
2017-10-27T00:17:27.625Z,18.87
2017-10-27T00:19:55.183Z,19.17
2017-10-27T00:22:22.712Z,18.90
2017-10-27T00:24:50.237Z,18.57
2017-10-27T00:27:17.991Z,18.50
2017-10-27T00:29:45.530Z,16.87
2017-10-27T00:32:13.057Z,17.30
2017-10-27T00:34:40.768Z,19.03
2017-10-27T00:37:08.299Z,18.97
2017-10-27T00:39:35.822Z,19.80
2017-10-27T00:42:03.587Z,17.67
2017-10-27T00:44:31.116Z,18.37
2017-10-27T00:46:58.636Z,20.40
2017-10-27T00:49:26.400Z,21.20
2017-10-27T00:51:53.916Z,24.67
2017-10-27T00:54:21.456Z,35.83
2017-10-27T00:56:49.286Z,22.20
2017-10-27T00:59:16.849Z,21.23
2017-10-27T01:01:44.380Z,20.70
2017-10-27T01:04:12.151Z,24.13
2017-10-27T01:06:39.681Z,27.00
2017-10-27T01:09:07.229Z,38.30
2017-10-27T01:11:34.993Z,39.57
2017-10-27T01:14:02.523Z,33.93
2017-10-27T01:16:30.064Z,40.67
2017-10-27T01:18:57.832Z,45.10
2017-10-27T01:21:25.363Z,46.80
2017-10-27T01:23:52.895Z,42.97
2017-10-27T01:26:20.711Z,41.70
2017-10-27T01:28:48.251Z,40.47
2017-10-27T01:31:15.829Z,40.37
2017-10-27T01:33:43.576Z,40.50
2017-10-27T01:36:11.154Z,36.70
2017-10-27T01:38:38.710Z,38.70
2017-10-27T01:41:06.474Z,34.67
2017-10-27T01:43:34.038Z,35.17
2017-10-27T01:46:01.594Z,31.23
2017-10-27T01:48:29.357Z,32.67
2017-10-27T01:50:57.018Z,31.97
2017-10-27T01:53:24.577Z,32.60
2017-10-27T01:55:52.429Z,30.67
2017-10-27T01:58:20.106Z,28.70
2017-10-27T02:00:47.752Z,28.10
2017-10-27T02:03:15.325Z,28.87
2017-10-27T02:05:42.860Z,27.10
2017-10-27T02:08:10.547Z,25.47
2017-10-27T02:10:38.414Z,27.47
2017-10-27T02:13:05.972Z,27.10
2017-10-27T02:15:33.530Z,26.17
2017-10-27T02:18:01.311Z,24.80
2017-10-27T02:20:28.892Z,24.77
2017-10-27T02:22:56.419Z,24.77
2017-10-27T02:25:24.175Z,21.10
2017-10-27T02:27:51.703Z,23.20
2017-10-27T02:30:19.237Z,22.60
2017-10-27T02:32:46.965Z,23.03
2017-10-27T02:35:14.515Z,23.23
2017-10-27T02:37:42.063Z,26.60
2017-10-27T02:40:09.866Z,24.13
2017-10-27T02:42:37.397Z,24.47
2017-10-27T02:45:04.957Z,23.40
2017-10-27T02:47:32.720Z,25.50
2017-10-27T02:50:00.279Z,25.10
2017-10-27T02:52:27.875Z,24.13
2017-10-27T02:54:55.522Z,23.97
2017-10-27T02:57:23.981Z,22.67
2017-10-27T02:59:51.543Z,23.77
2017-10-27T03:02:19.209Z,22.47
2017-10-27T03:04:46.739Z,22.03
2017-10-27T03:07:14.275Z,23.90
2017-10-27T03:09:41.930Z,22.53
2017-10-27T03:12:09.462Z,25.27
2017-10-27T03:14:37.000Z,23.70
2017-10-27T03:17:04.744Z,23.70
2017-10-27T03:19:32.264Z,26.67
2017-10-27T03:21:59.790Z,23.77
2017-10-27T03:24:27.540Z,24.40
2017-10-27T03:26:55.118Z,24.50
2017-10-27T03:29:22.661Z,26.10
2017-10-27T03:31:50.416Z,25.43
2017-10-27T03:34:17.984Z,26.07
2017-10-27T03:36:45.540Z,24.17
2017-10-27T03:39:13.393Z,23.50
2017-10-27T03:41:40.972Z,29.40
2017-10-27T03:44:08.549Z,25.93
2017-10-27T03:46:36.139Z,27.03
2017-10-27T03:49:03.680Z,26.67
2017-10-27T03:51:31.211Z,25.30
2017-10-27T03:53:58.953Z,24.40
2017-10-27T03:56:26.480Z,26.50
2017-10-27T03:58:54.011Z,26.70
2017-10-27T04:01:21.931Z,26.00
2017-10-27T04:03:49.456Z,27.03
2017-10-27T04:06:16.980Z,24.73
2017-10-27T04:08:44.739Z,28.27
2017-10-27T04:11:12.289Z,25.77
2017-10-27T04:13:39.849Z,25.13
2017-10-27T04:16:07.511Z,24.60
2017-10-27T04:18:35.044Z,27.23
2017-10-27T04:21:02.567Z,25.00
2017-10-27T04:23:29.701Z,24.00
2017-10-27T04:25:57.219Z,24.40
2017-10-27T04:28:24.743Z,24.97
2017-10-27T04:30:52.543Z,24.60
2017-10-27T04:33:20.118Z,26.63
2017-10-27T04:35:47.677Z,24.43
2017-10-27T04:38:15.505Z,25.73
2017-10-27T04:40:43.038Z,27.03
2017-10-27T04:43:10.579Z,27.05
2017-10-27T04:45:38.424Z,24.57
2017-10-27T04:48:05.970Z,26.07
2017-10-27T04:50:33.644Z,25.40
2017-10-27T04:53:01.396Z,23.75
2017-10-27T04:55:28.970Z,23.75
2017-10-27T04:57:56.529Z,25.50
2017-10-27T05:00:24.089Z,23.50
2017-10-27T05:02:51.647Z,23.13
2017-10-27T05:05:19.615Z,20.93
2017-10-27T05:07:47.183Z,22.50
2017-10-27T05:10:15.767Z,23.12
2017-10-27T05:12:43.283Z,20.93
2017-10-27T05:15:11.064Z,18.47
2017-10-27T05:17:44.107Z,19.07
2017-10-27T05:20:17.342Z,19.87
2017-10-27T05:22:50.362Z,15.97
2017-10-27T05:25:17.918Z,16.40
2017-10-27T05:27:45.471Z,16.67
2017-10-27T05:30:12.992Z,15.27
2017-10-27T05:32:40.871Z,15.13
2017-10-27T05:35:08.404Z,13.83
2017-10-27T05:37:35.936Z,14.80
2017-10-27T05:40:03.500Z,16.83
2017-10-27T05:42:32.047Z,16.03
2017-10-27T05:44:59.607Z,16.43
2017-10-27T05:47:27.167Z,15.73
2017-10-27T05:49:54.699Z,15.10
2017-10-27T05:52:22.223Z,17.57
2017-10-27T05:54:49.783Z,17.50
2017-10-27T05:57:17.312Z,17.57
2017-10-27T05:59:45.680Z,16.37
2017-10-27T06:02:13.363Z,19.40
2017-10-27T06:04:41.412Z,18.93
2017-10-27T06:07:08.932Z,19.80
2017-10-27T06:09:36.634Z,18.30
2017-10-27T06:12:04.192Z,15.70
2017-10-27T06:14:31.750Z,16.47
2017-10-27T06:16:59.404Z,15.07
2017-10-27T06:19:26.929Z,15.20
2017-10-27T06:21:54.448Z,16.30
2017-10-27T06:24:22.191Z,18.87
2017-10-27T06:26:49.711Z,16.90
2017-10-27T06:29:17.235Z,18.10
2017-10-27T06:31:45.087Z,18.53
2017-10-27T06:34:12.633Z,14.50
2017-10-27T06:36:40.191Z,15.20
2017-10-27T06:39:07.955Z,12.53
2017-10-27T06:41:35.477Z,11.77
2017-10-27T06:44:03.484Z,13.77
2017-10-27T06:46:31.043Z,12.90
2017-10-27T06:48:58.602Z,13.35
2017-10-27T06:51:26.161Z,13.10
2017-10-27T06:53:53.772Z,14.40
2017-10-27T06:56:21.319Z,13.15
2017-10-27T06:58:48.863Z,16.30
2017-10-27T07:01:16.601Z,13.40
2017-10-27T07:03:44.161Z,13.73
2017-10-27T07:06:11.734Z,15.07
2017-10-27T07:08:39.484Z,14.95
2017-10-27T07:11:07.043Z,12.85
2017-10-27T07:13:34.602Z,12.98
2017-10-27T07:16:02.182Z,14.27
2017-10-27T07:18:29.721Z,15.80
2017-10-27T07:20:57.282Z,14.70
2017-10-27T07:23:25.043Z,14.75
2017-10-27T07:25:52.602Z,12.10
2017-10-27T07:28:20.165Z,14.75
2017-10-27T07:30:48.011Z,14.93
2017-10-27T07:33:15.545Z,15.48
2017-10-27T07:35:43.086Z,13.60
2017-10-27T07:38:10.705Z,14.07
2017-10-27T07:40:39.187Z,17.42
2017-10-27T07:43:06.745Z,11.93
2017-10-27T07:45:34.324Z,13.68
2017-10-27T07:48:01.855Z,13.27
2017-10-27T07:50:29.423Z,12.75
2017-10-27T07:52:57.288Z,13.07
2017-10-27T07:55:24.819Z,12.80
2017-10-27T07:57:52.357Z,12.98
2017-10-27T08:00:19.994Z,19.98
2017-10-27T08:02:47.627Z,14.87
2017-10-27T08:05:15.155Z,15.85
2017-10-27T08:07:42.932Z,13.20
2017-10-27T08:10:10.463Z,13.65
2017-10-27T08:12:39.087Z,13.43
2017-10-27T08:15:06.772Z,10.05
2017-10-27T08:17:33.610Z,10.30
2017-10-27T08:20:04.206Z,9.43
2017-10-27T08:22:31.990Z,10.85
2017-10-27T08:24:59.550Z,13.23
2017-10-27T08:27:27.124Z,11.23
2017-10-27T08:29:54.875Z,11.35
2017-10-27T08:32:22.432Z,11.70
2017-10-27T08:34:49.995Z,11.02
2017-10-27T08:37:17.763Z,11.35
2017-10-27T08:39:45.827Z,13.45
2017-10-27T08:42:25.674Z,11.30
2017-10-27T08:44:53.216Z,10.20
2017-10-27T08:47:20.792Z,11.38
2017-10-27T08:49:48.493Z,11.88
2017-10-27T08:52:16.012Z,11.55
2017-10-27T08:54:43.573Z,11.77
2017-10-27T08:57:11.337Z,11.45
2017-10-27T08:59:38.863Z,11.60
2017-10-27T09:02:06.455Z,12.20
2017-10-27T09:04:34.422Z,10.70
2017-10-27T09:07:01.982Z,10.97
2017-10-27T09:09:29.744Z,13.90
2017-10-27T09:11:57.509Z,12.95
2017-10-27T09:14:25.069Z,11.80
2017-10-27T09:16:52.631Z,10.47
2017-10-27T09:19:20.391Z,9.97
2017-10-27T09:21:47.951Z,9.87
2017-10-27T09:24:15.475Z,7.50
2017-10-27T09:26:43.274Z,7.43
2017-10-27T09:29:10.819Z,5.77
2017-10-27T09:31:38.340Z,6.40
2017-10-27T09:34:06.038Z,5.47
2017-10-27T09:36:33.552Z,5.10
2017-10-27T09:39:01.092Z,4.43
2017-10-27T09:41:28.834Z,4.47
2017-10-27T09:43:56.393Z,4.70
2017-10-27T09:46:23.954Z,3.97
2017-10-27T09:48:51.715Z,4.73
2017-10-27T09:51:19.378Z,3.90
2017-10-27T09:53:46.936Z,4.30
2017-10-27T09:56:14.802Z,4.47
2017-10-27T09:58:42.318Z,4.33
2017-10-27T10:01:09.875Z,4.43
2017-10-27T10:03:37.553Z,4.50
2017-10-27T10:06:05.243Z,4.10
2017-10-27T10:08:32.762Z,4.20
2017-10-27T10:11:00.311Z,4.63
2017-10-27T10:13:27.836Z,3.70
2017-10-27T10:15:56.299Z,3.53
2017-10-27T10:18:24.576Z,5.47
2017-10-27T10:20:52.135Z,4.27
2017-10-27T10:23:19.666Z,4.53
2017-10-27T10:25:47.463Z,4.93
2017-10-27T10:28:15.031Z,4.70
2017-10-27T10:30:42.576Z,4.80
2017-10-27T10:33:10.319Z,4.60
2017-10-27T10:35:37.899Z,5.13
2017-10-27T10:38:05.459Z,4.83
2017-10-27T10:40:33.199Z,3.80
2017-10-27T10:43:00.726Z,5.30
2017-10-27T10:45:28.251Z,7.23
2017-10-27T10:47:56.002Z,4.57
2017-10-27T10:50:23.524Z,3.03
2017-10-27T10:52:51.531Z,3.60
2017-10-27T10:55:19.116Z,3.30
2017-10-27T10:57:46.648Z,4.60
2017-10-27T11:00:14.231Z,4.80
2017-10-27T11:02:42.280Z,4.60
2017-10-27T11:05:09.833Z,4.77
2017-10-27T11:07:37.408Z,4.37
2017-10-27T11:10:05.367Z,3.83
2017-10-27T11:12:32.886Z,5.00
2017-10-27T11:15:00.408Z,4.67
2017-10-27T11:17:28.123Z,4.80
2017-10-27T11:19:55.636Z,3.93
2017-10-27T11:22:23.165Z,3.93
2017-10-27T11:24:50.908Z,3.77
2017-10-27T11:27:18.424Z,3.77
2017-10-27T11:29:45.948Z,4.80
2017-10-27T11:32:13.787Z,3.80
2017-10-27T11:34:41.311Z,3.67
2017-10-27T11:37:08.827Z,4.07
2017-10-27T11:39:36.592Z,5.27
2017-10-27T11:42:04.147Z,4.90
2017-10-27T11:44:31.815Z,5.60
2017-10-27T11:46:59.847Z,5.13
2017-10-27T11:49:27.451Z,6.80
2017-10-27T11:51:54.997Z,4.83
2017-10-27T11:54:22.763Z,4.13
2017-10-27T11:56:50.329Z,2.93
2017-10-27T11:59:17.894Z,3.80
2017-10-27T12:01:45.736Z,4.03
2017-10-27T12:04:13.305Z,4.10
2017-10-27T12:06:40.865Z,3.43
2017-10-27T12:09:08.560Z,3.80
2017-10-27T12:11:36.089Z,3.80
2017-10-27T12:14:03.643Z,3.50
2017-10-27T12:16:31.388Z,4.10
2017-10-27T12:18:58.967Z,3.77
2017-10-27T12:21:26.536Z,3.27
2017-10-27T12:23:54.297Z,3.40
2017-10-27T12:26:21.848Z,3.80
2017-10-27T12:28:49.445Z,3.50
2017-10-27T12:31:17.172Z,3.43
2017-10-27T12:33:44.694Z,4.00
2017-10-27T12:36:12.291Z,4.77
2017-10-27T12:38:40.055Z,4.57
2017-10-27T12:41:07.620Z,4.27
2017-10-27T12:43:35.190Z,3.93
2017-10-27T12:46:03.022Z,4.00
2017-10-27T12:48:30.553Z,2.63
2017-10-27T12:50:58.086Z,3.77
2017-10-27T12:53:25.659Z,3.03
2017-10-27T12:55:53.181Z,3.90
2017-10-27T12:58:20.731Z,3.80
2017-10-27T13:00:48.474Z,4.20
2017-10-27T13:03:16.004Z,4.53
2017-10-27T13:05:43.531Z,9.30
2017-10-27T13:08:11.274Z,4.70
2017-10-27T13:10:38.836Z,4.50
2017-10-27T13:13:06.413Z,3.70
2017-10-27T13:15:34.567Z,3.13
2017-10-27T13:18:02.126Z,2.70
2017-10-27T13:20:30.096Z,4.60
2017-10-27T13:22:58.018Z,2.90
2017-10-27T13:25:25.552Z,2.30
2017-10-27T13:27:54.001Z,4.37
2017-10-27T13:30:21.548Z,2.70
2017-10-27T13:32:49.223Z,2.10
2017-10-27T13:35:17.702Z,2.27
2017-10-27T13:37:45.466Z,2.80
2017-10-27T13:40:12.988Z,2.67
2017-10-27T13:42:40.504Z,2.20
2017-10-27T13:45:08.339Z,1.70
2017-10-27T13:47:35.860Z,2.10
2017-10-27T13:50:03.390Z,2.63
2017-10-27T13:52:31.027Z,1.97
2017-10-27T13:54:58.687Z,1.73
2017-10-27T13:57:26.246Z,2.20
2017-10-27T13:59:54.453Z,1.70
2017-10-27T14:02:21.981Z,2.20
2017-10-27T14:04:49.533Z,1.97
2017-10-27T14:07:17.417Z,1.70
2017-10-27T14:09:44.963Z,2.10
2017-10-27T14:12:12.478Z,1.80
2017-10-27T14:14:40.276Z,2.03
2017-10-27T14:17:08.120Z,2.10
2017-10-27T14:19:35.815Z,2.20
2017-10-27T14:22:04.399Z,2.20
2017-10-27T14:24:32.880Z,2.50
2017-10-27T14:27:01.059Z,1.80
2017-10-27T14:29:29.001Z,2.33
2017-10-27T14:31:56.896Z,2.90
2017-10-27T14:34:24.881Z,2.83
2017-10-27T14:36:53.191Z,2.80
2017-10-27T14:39:20.915Z,2.23
2017-10-27T14:41:48.797Z,2.43
2017-10-27T14:44:16.838Z,2.07
2017-10-27T14:46:44.700Z,2.93
2017-10-27T14:49:12.259Z,2.30
2017-10-27T14:51:40.036Z,2.23
2017-10-27T14:54:07.744Z,2.60
2017-10-27T14:56:36.241Z,2.07
2017-10-27T14:59:04.238Z,2.10
2017-10-27T15:01:31.828Z,2.70
2017-10-27T15:03:59.563Z,2.63
2017-10-27T15:06:27.632Z,2.10
2017-10-27T15:08:55.397Z,2.60
2017-10-27T15:11:23.052Z,4.60
2017-10-27T15:13:51.020Z,9.27
2017-10-27T15:16:18.855Z,6.43
2017-10-27T15:18:46.761Z,3.73
2017-10-27T15:21:14.654Z,2.90
2017-10-27T15:23:42.409Z,3.00
2017-10-27T15:26:10.271Z,3.33
2017-10-27T15:28:38.230Z,5.30
2017-10-27T15:31:06.012Z,3.30
2017-10-27T15:33:33.859Z,2.67
2017-10-27T15:36:02.741Z,3.60
2017-10-27T15:38:30.616Z,3.73
2017-10-27T15:40:59.469Z,2.80
2017-10-27T15:43:27.578Z,2.60
2017-10-27T15:45:55.273Z,2.83
2017-10-27T15:48:23.140Z,2.87
2017-10-27T15:50:51.110Z,2.77
2017-10-27T15:53:18.833Z,2.90
2017-10-27T15:55:46.600Z,4.03
2017-10-27T15:58:14.775Z,3.53
2017-10-27T16:00:42.549Z,4.57
2017-10-27T16:03:10.502Z,4.78
2017-10-27T16:05:38.575Z,6.55
2017-10-27T16:08:06.513Z,5.22
2017-10-27T16:10:34.133Z,3.90
2017-10-27T16:13:02.173Z,3.42
2017-10-27T16:15:29.820Z,3.20
2017-10-27T16:17:57.428Z,3.05
2017-10-27T16:20:25.678Z,3.78
2017-10-27T16:22:53.349Z,3.40
2017-10-27T16:25:21.008Z,3.45
2017-10-27T16:27:48.969Z,4.32
2017-10-27T16:30:16.726Z,3.50
2017-10-27T16:32:44.489Z,2.80
2017-10-27T16:35:12.510Z,3.30
2017-10-27T16:37:40.110Z,2.95
2017-10-27T16:40:07.800Z,3.58
2017-10-27T16:42:35.851Z,4.50
2017-10-27T16:45:03.720Z,6.15
2017-10-27T16:47:31.493Z,7.95
2017-10-27T16:49:59.859Z,6.15
2017-10-27T16:52:27.637Z,5.90
2017-10-27T16:54:55.697Z,5.65
2017-10-27T16:57:23.868Z,5.00
2017-10-27T16:59:51.649Z,5.37
2017-10-27T17:02:19.407Z,20.42
2017-10-27T17:04:47.980Z,6.87
2017-10-27T17:07:15.850Z,5.15
2017-10-27T17:09:43.611Z,17.27
2017-10-27T17:12:11.692Z,22.33
2017-10-27T17:14:39.456Z,12.05
2017-10-27T17:17:07.328Z,10.93
2017-10-27T17:19:35.396Z,11.35
2017-10-27T17:22:03.285Z,8.18
2017-10-27T17:24:31.041Z,5.57
2017-10-27T17:26:58.992Z,5.32
2017-10-27T17:29:26.879Z,5.97
2017-10-27T17:31:54.727Z,5.43
2017-10-27T17:34:23.604Z,4.95
2017-10-27T17:36:51.322Z,7.70
2017-10-27T17:39:19.236Z,6.95
2017-10-27T17:41:48.432Z,5.40
2017-10-27T17:44:16.401Z,5.37
2017-10-27T17:46:44.271Z,5.70
2017-10-27T17:49:12.134Z,5.00
2017-10-27T17:51:40.418Z,3.85
2017-10-27T17:54:08.279Z,4.90
2017-10-27T17:56:37.381Z,4.40
2017-10-27T17:59:05.140Z,5.00
2017-10-27T18:01:33.227Z,5.50
2017-10-27T18:04:01.300Z,5.50
2017-10-27T18:06:29.146Z,6.75
2017-10-27T18:08:57.113Z,5.43
2017-10-27T18:11:25.286Z,6.18
2017-10-27T18:13:53.737Z,4.78
2017-10-27T18:16:21.652Z,4.80
2017-10-27T18:18:50.450Z,4.40
2017-10-27T18:21:18.392Z,6.07
2017-10-27T18:23:46.158Z,4.85
2017-10-27T18:26:14.228Z,6.10
2017-10-27T18:28:41.990Z,5.65
2017-10-27T18:31:09.650Z,5.07
2017-10-27T18:33:38.373Z,5.57
2017-10-27T18:36:06.517Z,7.50
2017-10-27T18:38:34.278Z,7.93
2017-10-27T18:41:02.346Z,5.12
2017-10-27T18:43:30.090Z,6.12
2017-10-27T18:45:57.874Z,5.22
2017-10-27T18:48:25.961Z,4.28
2017-10-27T18:50:54.034Z,5.28
2017-10-27T18:53:21.794Z,4.10
2017-10-27T18:55:49.745Z,4.53
2017-10-27T18:58:17.517Z,3.70
2017-10-27T19:00:45.294Z,3.95
2017-10-27T19:03:13.261Z,4.15
2017-10-27T19:05:41.013Z,4.45
2017-10-27T19:08:08.777Z,4.30
2017-10-27T19:10:36.640Z,5.25
2017-10-27T19:13:04.407Z,4.65
2017-10-27T19:15:32.183Z,4.12
2017-10-27T19:18:00.544Z,8.52
2017-10-27T19:20:28.326Z,4.37
2017-10-27T19:22:56.076Z,4.28
2017-10-27T19:25:23.846Z,3.62
2017-10-27T19:27:51.719Z,4.43
2017-10-27T19:30:19.637Z,3.40
2017-10-27T19:32:47.741Z,4.20
2017-10-27T19:35:15.608Z,4.62
2017-10-27T19:37:43.371Z,3.75
2017-10-27T19:40:11.956Z,4.28
2017-10-27T19:42:40.744Z,4.00
2017-10-27T19:45:08.521Z,3.75
2017-10-27T19:47:36.482Z,4.32
2017-10-27T19:50:04.274Z,3.42
2017-10-27T19:52:32.116Z,4.10
2017-10-27T19:55:00.182Z,3.83
2017-10-27T19:57:28.356Z,2.75
2017-10-27T19:59:56.114Z,3.50
2017-10-27T20:02:24.321Z,4.70
2017-10-27T20:04:52.070Z,4.30
2017-10-27T20:07:19.921Z,4.60
2017-10-27T20:09:48.211Z,4.05
2017-10-27T20:12:16.164Z,4.85
2017-10-27T20:14:43.944Z,3.70
2017-10-27T20:17:12.165Z,4.43
2017-10-27T20:19:40.582Z,4.85
2017-10-27T20:22:08.338Z,4.82
2017-10-27T20:24:36.424Z,3.90
2017-10-27T20:27:04.423Z,3.70
2017-10-27T20:29:32.149Z,3.80
2017-10-27T20:32:00.077Z,4.18
2017-10-27T20:34:27.849Z,3.80
2017-10-27T20:36:55.542Z,5.97
2017-10-27T20:39:23.427Z,3.72
2017-10-27T20:41:51.275Z,4.10
2017-10-27T20:44:18.942Z,4.10
2017-10-27T20:46:46.906Z,3.75
2017-10-27T20:49:15.506Z,4.05
2017-10-27T20:51:43.973Z,4.97
2017-10-27T20:54:11.938Z,4.30
2017-10-27T20:56:39.724Z,3.92
2017-10-27T20:59:07.570Z,3.85
2017-10-27T21:01:35.639Z,3.90
2017-10-27T21:04:03.312Z,4.30
2017-10-27T21:06:31.079Z,4.30
2017-10-27T21:08:59.529Z,4.07
2017-10-27T21:11:27.721Z,4.85
2017-10-27T21:13:55.587Z,4.05
2017-10-27T21:16:23.512Z,4.10
2017-10-27T21:18:51.730Z,4.72
2017-10-27T21:21:19.807Z,6.78
2017-10-27T21:23:47.881Z,4.57
2017-10-27T21:26:15.943Z,5.28
2017-10-27T21:28:43.818Z,4.32
2017-10-27T21:31:11.667Z,4.95
2017-10-27T21:33:39.552Z,4.62
2017-10-27T21:36:07.305Z,6.05
2017-10-27T21:38:35.477Z,5.60
2017-10-27T21:41:03.241Z,5.28
2017-10-27T21:43:31.118Z,6.20
2017-10-27T21:45:59.083Z,6.40
2017-10-27T21:48:26.844Z,5.20
2017-10-27T21:50:54.402Z,6.05
2017-10-27T21:53:22.472Z,5.70
2017-10-27T21:55:50.133Z,6.90
2017-10-27T21:58:17.884Z,5.82
2017-10-27T22:00:45.765Z,6.90
2017-10-27T22:03:13.427Z,7.20
2017-10-27T22:05:40.992Z,6.43
2017-10-27T22:08:08.852Z,8.35
2017-10-27T22:10:36.716Z,6.70
2017-10-27T22:13:04.480Z,6.78
2017-10-27T22:15:32.243Z,5.78
2017-10-27T22:17:59.876Z,6.78
2017-10-27T22:20:27.791Z,5.47
2017-10-27T22:22:55.714Z,7.22
2017-10-27T22:25:23.457Z,6.78
2017-10-27T22:27:51.167Z,6.53
2017-10-27T22:30:18.930Z,7.85
2017-10-27T22:32:46.541Z,6.62
2017-10-27T22:35:14.149Z,5.93
2017-10-27T22:37:42.028Z,6.35
2017-10-27T22:40:09.678Z,7.00
2017-10-27T22:42:37.320Z,7.03
2017-10-27T22:45:05.309Z,6.15
2017-10-27T22:47:36.296Z,6.68
2017-10-27T22:50:04.011Z,6.62
2017-10-27T22:52:32.184Z,7.25
2017-10-27T22:54:59.744Z,7.78
2017-10-27T22:57:27.358Z,6.82
2017-10-27T22:59:55.169Z,7.10
2017-10-27T23:02:22.727Z,6.55
2017-10-27T23:04:50.385Z,5.50
2017-10-27T23:07:18.268Z,5.97
2017-10-27T23:09:45.791Z,5.65
2017-10-27T23:12:13.312Z,6.25
2017-10-27T23:14:41.178Z,6.78
2017-10-27T23:17:08.705Z,6.65
2017-10-27T23:19:36.245Z,5.62
2017-10-27T23:22:04.518Z,5.45
2017-10-27T23:24:32.041Z,6.18
2017-10-27T23:26:59.571Z,4.93
2017-10-27T23:29:27.310Z,5.97
2017-10-27T23:31:54.884Z,4.40
2017-10-27T23:34:22.425Z,3.90
2017-10-27T23:36:50.084Z,4.22
2017-10-27T23:39:17.654Z,3.53
2017-10-27T23:41:45.216Z,4.28
2017-10-27T23:44:13.262Z,4.05
2017-10-27T23:46:40.789Z,4.32
2017-10-27T23:49:08.313Z,4.22
2017-10-27T23:51:36.143Z,3.20
2017-10-27T23:54:03.664Z,3.67
2017-10-27T23:56:31.187Z,3.58
2017-10-27T23:58:58.948Z,3.08
